sensor_id;sensor_type;location;lat;lon;timestamp;P1;durP1;ratioP1;P2;durP2;ratioP2
3207;SDS011;1616;52.394;9.756;2022-07-23T00:01:18;6.17;;;5.27;;
3207;SDS011;1616;52.394;9.756;2022-07-23T00:03:44;4.47;;;4.20;;
3207;SDS011;1616;52.394;9.756;2022-07-23T00:06:10;5.10;;;4.70;;
3207;SDS011;1616;52.394;9.756;2022-07-23T00:08:36;6.03;;;5.70;;
3207;SDS011;1616;52.394;9.756;2022-07-23T00:11:02;5.13;;;4.77;;
3207;SDS011;1616;52.394;9.756;2022-07-23T00:13:28;5.10;;;4.70;;
3207;SDS011;1616;52.394;9.756;2022-07-23T00:15:53;5.17;;;4.87;;
3207;SDS011;1616;52.394;9.756;2022-07-23T00:18:20;4.77;;;4.30;;
3207;SDS011;1616;52.394;9.756;2022-07-23T00:20:46;6.33;;;5.73;;
3207;SDS011;1616;52.394;9.756;2022-07-23T00:23:12;5.53;;;4.90;;
3207;SDS011;1616;52.394;9.756;2022-07-23T00:25:37;8.20;;;5.03;;
3207;SDS011;1616;52.394;9.756;2022-07-23T00:28:03;9.07;;;5.57;;
3207;SDS011;1616;52.394;9.756;2022-07-23T00:30:29;7.60;;;4.60;;
3207;SDS011;1616;52.394;9.756;2022-07-23T00:32:56;6.13;;;5.83;;
3207;SDS011;1616;52.394;9.756;2022-07-23T00:35:25;6.20;;;5.60;;
3207;SDS011;1616;52.394;9.756;2022-07-23T00:37:54;6.40;;;5.77;;
3207;SDS011;1616;52.394;9.756;2022-07-23T00:40:20;6.43;;;5.87;;
3207;SDS011;1616;52.394;9.756;2022-07-23T00:42:46;5.47;;;4.67;;
3207;SDS011;1616;52.394;9.756;2022-07-23T00:45:12;7.40;;;4.20;;
3207;SDS011;1616;52.394;9.756;2022-07-23T00:47:38;6.30;;;5.40;;
3207;SDS011;1616;52.394;9.756;2022-07-23T00:50:05;5.00;;;4.70;;
3207;SDS011;1616;52.394;9.756;2022-07-23T00:52:32;6.53;;;5.77;;
3207;SDS011;1616;52.394;9.756;2022-07-23T00:54:59;5.63;;;5.13;;
3207;SDS011;1616;52.394;9.756;2022-07-23T00:57:24;8.03;;;6.50;;
3207;SDS011;1616;52.394;9.756;2022-07-23T00:59:50;5.83;;;5.37;;
3207;SDS011;1616;52.394;9.756;2022-07-23T01:02:16;6.27;;;5.40;;
3207;SDS011;1616;52.394;9.756;2022-07-23T01:04:42;5.67;;;5.27;;
3207;SDS011;1616;52.394;9.756;2022-07-23T01:07:08;6.80;;;5.50;;
3207;SDS011;1616;52.394;9.756;2022-07-23T01:09:34;5.90;;;4.90;;
3207;SDS011;1616;52.394;9.756;2022-07-23T01:11:59;9.53;;;5.80;;
3207;SDS011;1616;52.394;9.756;2022-07-23T01:14:26;6.30;;;5.80;;
3207;SDS011;1616;52.394;9.756;2022-07-23T01:16:51;5.50;;;5.10;;
3207;SDS011;1616;52.394;9.756;2022-07-23T01:19:18;8.73;;;5.87;;
3207;SDS011;1616;52.394;9.756;2022-07-23T01:21:45;6.53;;;4.70;;
3207;SDS011;1616;52.394;9.756;2022-07-23T01:24:12;5.10;;;4.67;;
3207;SDS011;1616;52.394;9.756;2022-07-23T01:26:40;6.57;;;6.00;;
3207;SDS011;1616;52.394;9.756;2022-07-23T01:29:08;4.70;;;4.40;;
3207;SDS011;1616;52.394;9.756;2022-07-23T01:31:33;8.83;;;6.27;;
3207;SDS011;1616;52.394;9.756;2022-07-23T01:33:59;4.90;;;4.50;;
3207;SDS011;1616;52.394;9.756;2022-07-23T01:36:25;5.80;;;4.73;;
3207;SDS011;1616;52.394;9.756;2022-07-23T01:38:51;6.10;;;5.50;;
3207;SDS011;1616;52.394;9.756;2022-07-23T01:41:17;6.70;;;5.50;;
3207;SDS011;1616;52.394;9.756;2022-07-23T01:43:43;6.13;;;5.63;;
3207;SDS011;1616;52.394;9.756;2022-07-23T01:46:09;8.37;;;4.90;;
3207;SDS011;1616;52.394;9.756;2022-07-23T01:48:35;5.60;;;5.10;;
3207;SDS011;1616;52.394;9.756;2022-07-23T01:51:01;6.30;;;5.20;;
3207;SDS011;1616;52.394;9.756;2022-07-23T01:53:27;7.60;;;5.50;;
3207;SDS011;1616;52.394;9.756;2022-07-23T01:55:53;4.90;;;4.50;;
3207;SDS011;1616;52.394;9.756;2022-07-23T01:58:19;6.20;;;5.73;;
3207;SDS011;1616;52.394;9.756;2022-07-23T02:00:44;4.10;;;3.70;;
3207;SDS011;1616;52.394;9.756;2022-07-23T02:03:10;4.90;;;4.40;;
3207;SDS011;1616;52.394;9.756;2022-07-23T02:05:35;5.60;;;5.20;;
3207;SDS011;1616;52.394;9.756;2022-07-23T02:08:01;3.90;;;3.60;;
3207;SDS011;1616;52.394;9.756;2022-07-23T02:10:27;4.50;;;4.30;;
3207;SDS011;1616;52.394;9.756;2022-07-23T02:12:53;5.57;;;4.67;;
3207;SDS011;1616;52.394;9.756;2022-07-23T02:15:19;5.37;;;4.93;;
3207;SDS011;1616;52.394;9.756;2022-07-23T02:17:45;8.53;;;5.00;;
3207;SDS011;1616;52.394;9.756;2022-07-23T02:20:10;7.97;;;4.30;;
3207;SDS011;1616;52.394;9.756;2022-07-23T02:22:36;4.03;;;3.73;;
3207;SDS011;1616;52.394;9.756;2022-07-23T02:25:03;6.67;;;4.10;;
3207;SDS011;1616;52.394;9.756;2022-07-23T02:27:30;3.40;;;3.20;;
3207;SDS011;1616;52.394;9.756;2022-07-23T02:29:56;5.20;;;4.10;;
3207;SDS011;1616;52.394;9.756;2022-07-23T02:32:22;6.37;;;4.67;;
3207;SDS011;1616;52.394;9.756;2022-07-23T02:34:49;7.40;;;4.47;;
3207;SDS011;1616;52.394;9.756;2022-07-23T02:37:15;4.40;;;4.00;;
3207;SDS011;1616;52.394;9.756;2022-07-23T02:39:41;4.40;;;4.20;;
3207;SDS011;1616;52.394;9.756;2022-07-23T02:42:07;3.83;;;3.63;;
3207;SDS011;1616;52.394;9.756;2022-07-23T02:44:33;8.60;;;5.37;;
3207;SDS011;1616;52.394;9.756;2022-07-23T02:46:58;5.13;;;4.67;;
3207;SDS011;1616;52.394;9.756;2022-07-23T02:49:24;7.63;;;3.87;;
3207;SDS011;1616;52.394;9.756;2022-07-23T02:51:50;3.73;;;3.53;;
3207;SDS011;1616;52.394;9.756;2022-07-23T02:54:15;4.27;;;3.70;;
3207;SDS011;1616;52.394;9.756;2022-07-23T02:56:41;4.37;;;4.00;;
3207;SDS011;1616;52.394;9.756;2022-07-23T02:59:07;6.90;;;6.37;;
3207;SDS011;1616;52.394;9.756;2022-07-23T03:01:33;7.10;;;4.07;;
3207;SDS011;1616;52.394;9.756;2022-07-23T03:03:59;4.83;;;4.43;;
3207;SDS011;1616;52.394;9.756;2022-07-23T03:06:24;3.77;;;3.27;;
3207;SDS011;1616;52.394;9.756;2022-07-23T03:08:50;5.60;;;3.83;;
3207;SDS011;1616;52.394;9.756;2022-07-23T03:11:16;4.10;;;3.60;;
3207;SDS011;1616;52.394;9.756;2022-07-23T03:13:41;3.60;;;3.30;;
3207;SDS011;1616;52.394;9.756;2022-07-23T03:16:07;5.43;;;5.00;;
3207;SDS011;1616;52.394;9.756;2022-07-23T03:18:33;4.30;;;4.00;;
3207;SDS011;1616;52.394;9.756;2022-07-23T03:20:59;3.97;;;3.67;;
3207;SDS011;1616;52.394;9.756;2022-07-23T03:23:25;4.80;;;4.40;;
3207;SDS011;1616;52.394;9.756;2022-07-23T03:25:51;5.47;;;4.83;;
3207;SDS011;1616;52.394;9.756;2022-07-23T03:28:17;6.97;;;4.53;;
3207;SDS011;1616;52.394;9.756;2022-07-23T03:30:43;5.83;;;4.10;;
3207;SDS011;1616;52.394;9.756;2022-07-23T03:33:13;3.50;;;3.30;;
3207;SDS011;1616;52.394;9.756;2022-07-23T03:35:42;4.00;;;3.60;;
3207;SDS011;1616;52.394;9.756;2022-07-23T03:38:08;6.43;;;3.83;;
3207;SDS011;1616;52.394;9.756;2022-07-23T03:40:34;7.23;;;6.10;;
3207;SDS011;1616;52.394;9.756;2022-07-23T03:43:00;4.40;;;4.03;;
3207;SDS011;1616;52.394;9.756;2022-07-23T03:45:25;7.17;;;6.50;;
3207;SDS011;1616;52.394;9.756;2022-07-23T03:47:51;5.90;;;5.47;;
3207;SDS011;1616;52.394;9.756;2022-07-23T03:50:17;5.00;;;4.53;;
3207;SDS011;1616;52.394;9.756;2022-07-23T03:52:43;5.30;;;4.90;;
3207;SDS011;1616;52.394;9.756;2022-07-23T03:55:09;5.57;;;5.07;;
3207;SDS011;1616;52.394;9.756;2022-07-23T03:57:34;5.83;;;5.33;;
3207;SDS011;1616;52.394;9.756;2022-07-23T04:00:00;6.40;;;5.40;;
3207;SDS011;1616;52.394;9.756;2022-07-23T04:02:27;5.03;;;4.57;;
3207;SDS011;1616;52.394;9.756;2022-07-23T04:04:53;4.23;;;4.03;;
3207;SDS011;1616;52.394;9.756;2022-07-23T04:07:18;5.40;;;5.00;;
3207;SDS011;1616;52.394;9.756;2022-07-23T04:09:44;6.73;;;5.03;;
3207;SDS011;1616;52.394;9.756;2022-07-23T04:12:10;4.47;;;4.17;;
3207;SDS011;1616;52.394;9.756;2022-07-23T04:14:36;4.20;;;4.00;;
3207;SDS011;1616;52.394;9.756;2022-07-23T04:17:02;6.60;;;4.87;;
3207;SDS011;1616;52.394;9.756;2022-07-23T04:19:28;4.77;;;4.43;;
3207;SDS011;1616;52.394;9.756;2022-07-23T04:21:55;5.00;;;4.70;;
3207;SDS011;1616;52.394;9.756;2022-07-23T04:24:21;5.13;;;4.70;;
3207;SDS011;1616;52.394;9.756;2022-07-23T04:26:47;5.00;;;4.60;;
3207;SDS011;1616;52.394;9.756;2022-07-23T04:29:12;7.13;;;6.53;;
3207;SDS011;1616;52.394;9.756;2022-07-23T04:31:38;5.73;;;5.20;;
3207;SDS011;1616;52.394;9.756;2022-07-23T04:34:03;4.07;;;3.77;;
3207;SDS011;1616;52.394;9.756;2022-07-23T04:36:30;5.30;;;4.80;;
3207;SDS011;1616;52.394;9.756;2022-07-23T04:38:55;7.53;;;4.47;;
3207;SDS011;1616;52.394;9.756;2022-07-23T04:41:21;4.80;;;4.50;;
3207;SDS011;1616;52.394;9.756;2022-07-23T04:43:47;6.43;;;4.20;;
3207;SDS011;1616;52.394;9.756;2022-07-23T04:46:13;5.90;;;4.27;;
3207;SDS011;1616;52.394;9.756;2022-07-23T04:48:39;4.47;;;4.13;;
3207;SDS011;1616;52.394;9.756;2022-07-23T04:51:04;4.80;;;4.40;;
3207;SDS011;1616;52.394;9.756;2022-07-23T04:53:30;3.43;;;3.13;;
3207;SDS011;1616;52.394;9.756;2022-07-23T04:55:56;6.27;;;5.77;;
3207;SDS011;1616;52.394;9.756;2022-07-23T04:58:22;5.13;;;4.80;;
3207;SDS011;1616;52.394;9.756;2022-07-23T05:00:48;5.70;;;5.20;;
3207;SDS011;1616;52.394;9.756;2022-07-23T05:03:14;5.87;;;5.30;;
3207;SDS011;1616;52.394;9.756;2022-07-23T05:05:40;7.57;;;6.07;;
3207;SDS011;1616;52.394;9.756;2022-07-23T05:08:07;4.80;;;4.60;;
3207;SDS011;1616;52.394;9.756;2022-07-23T05:10:32;4.63;;;4.10;;
3207;SDS011;1616;52.394;9.756;2022-07-23T05:12:58;6.87;;;4.07;;
3207;SDS011;1616;52.394;9.756;2022-07-23T05:15:23;4.50;;;4.20;;
3207;SDS011;1616;52.394;9.756;2022-07-23T05:17:49;4.50;;;4.10;;
3207;SDS011;1616;52.394;9.756;2022-07-23T05:20:15;4.10;;;3.90;;
3207;SDS011;1616;52.394;9.756;2022-07-23T05:22:40;6.80;;;3.63;;
3207;SDS011;1616;52.394;9.756;2022-07-23T05:25:06;16.77;;;3.80;;
3207;SDS011;1616;52.394;9.756;2022-07-23T05:27:33;4.03;;;3.83;;
3207;SDS011;1616;52.394;9.756;2022-07-23T05:29:59;4.90;;;4.23;;
3207;SDS011;1616;52.394;9.756;2022-07-23T05:32:24;4.47;;;3.70;;
3207;SDS011;1616;52.394;9.756;2022-07-23T05:34:50;3.70;;;3.40;;
3207;SDS011;1616;52.394;9.756;2022-07-23T05:37:16;5.73;;;3.90;;
3207;SDS011;1616;52.394;9.756;2022-07-23T05:39:42;2.90;;;2.70;;
3207;SDS011;1616;52.394;9.756;2022-07-23T05:42:08;3.33;;;3.03;;
3207;SDS011;1616;52.394;9.756;2022-07-23T05:44:33;3.30;;;3.10;;
3207;SDS011;1616;52.394;9.756;2022-07-23T05:46:59;3.37;;;3.07;;
3207;SDS011;1616;52.394;9.756;2022-07-23T05:49:25;2.97;;;2.67;;
3207;SDS011;1616;52.394;9.756;2022-07-23T05:51:52;6.00;;;5.00;;
3207;SDS011;1616;52.394;9.756;2022-07-23T05:54:17;3.40;;;3.20;;
3207;SDS011;1616;52.394;9.756;2022-07-23T05:56:43;5.00;;;4.50;;
3207;SDS011;1616;52.394;9.756;2022-07-23T05:59:09;2.37;;;2.27;;
3207;SDS011;1616;52.394;9.756;2022-07-23T06:01:34;2.57;;;2.37;;
3207;SDS011;1616;52.394;9.756;2022-07-23T06:04:01;3.80;;;3.60;;
3207;SDS011;1616;52.394;9.756;2022-07-23T06:06:27;4.27;;;3.60;;
3207;SDS011;1616;52.394;9.756;2022-07-23T06:08:53;3.23;;;2.43;;
3207;SDS011;1616;52.394;9.756;2022-07-23T06:11:19;2.73;;;2.53;;
3207;SDS011;1616;52.394;9.756;2022-07-23T06:13:45;5.00;;;3.20;;
3207;SDS011;1616;52.394;9.756;2022-07-23T06:16:10;5.50;;;4.27;;
3207;SDS011;1616;52.394;9.756;2022-07-23T06:18:36;4.20;;;3.80;;
3207;SDS011;1616;52.394;9.756;2022-07-23T06:21:01;3.80;;;3.50;;
3207;SDS011;1616;52.394;9.756;2022-07-23T06:23:27;3.90;;;3.60;;
3207;SDS011;1616;52.394;9.756;2022-07-23T06:25:52;5.13;;;4.60;;
3207;SDS011;1616;52.394;9.756;2022-07-23T06:28:18;4.10;;;3.90;;
3207;SDS011;1616;52.394;9.756;2022-07-23T06:30:44;4.70;;;4.20;;
3207;SDS011;1616;52.394;9.756;2022-07-23T06:33:09;6.23;;;3.17;;
3207;SDS011;1616;52.394;9.756;2022-07-23T06:35:36;3.43;;;2.80;;
3207;SDS011;1616;52.394;9.756;2022-07-23T06:38:02;5.20;;;2.67;;
3207;SDS011;1616;52.394;9.756;2022-07-23T06:40:28;2.57;;;2.37;;
3207;SDS011;1616;52.394;9.756;2022-07-23T06:42:53;2.90;;;2.70;;
3207;SDS011;1616;52.394;9.756;2022-07-23T06:45:19;6.00;;;2.73;;
3207;SDS011;1616;52.394;9.756;2022-07-23T06:47:45;4.43;;;4.13;;
3207;SDS011;1616;52.394;9.756;2022-07-23T06:50:10;2.87;;;2.67;;
3207;SDS011;1616;52.394;9.756;2022-07-23T06:52:36;5.40;;;2.83;;
3207;SDS011;1616;52.394;9.756;2022-07-23T06:55:02;2.87;;;2.67;;
3207;SDS011;1616;52.394;9.756;2022-07-23T06:57:28;2.70;;;2.50;;
3207;SDS011;1616;52.394;9.756;2022-07-23T06:59:54;3.13;;;2.87;;
3207;SDS011;1616;52.394;9.756;2022-07-23T07:02:19;6.13;;;2.70;;
3207;SDS011;1616;52.394;9.756;2022-07-23T07:04:45;5.20;;;2.77;;
3207;SDS011;1616;52.394;9.756;2022-07-23T07:07:10;4.67;;;2.67;;
3207;SDS011;1616;52.394;9.756;2022-07-23T07:09:37;3.07;;;2.00;;
3207;SDS011;1616;52.394;9.756;2022-07-23T07:12:03;2.70;;;2.50;;
3207;SDS011;1616;52.394;9.756;2022-07-23T07:14:29;2.07;;;1.90;;
3207;SDS011;1616;52.394;9.756;2022-07-23T07:16:55;2.60;;;2.30;;
3207;SDS011;1616;52.394;9.756;2022-07-23T07:19:21;2.37;;;1.90;;
3207;SDS011;1616;52.394;9.756;2022-07-23T07:21:46;2.20;;;2.00;;
3207;SDS011;1616;52.394;9.756;2022-07-23T07:24:12;2.93;;;2.10;;
3207;SDS011;1616;52.394;9.756;2022-07-23T07:26:38;1.87;;;1.70;;
3207;SDS011;1616;52.394;9.756;2022-07-23T07:29:04;1.80;;;1.70;;
3207;SDS011;1616;52.394;9.756;2022-07-23T07:31:30;1.60;;;1.40;;
3207;SDS011;1616;52.394;9.756;2022-07-23T07:33:56;1.80;;;1.50;;
3207;SDS011;1616;52.394;9.756;2022-07-23T07:36:23;3.40;;;1.60;;
3207;SDS011;1616;52.394;9.756;2022-07-23T07:38:49;2.17;;;1.40;;
3207;SDS011;1616;52.394;9.756;2022-07-23T07:41:14;1.67;;;1.30;;
3207;SDS011;1616;52.394;9.756;2022-07-23T07:43:41;2.60;;;2.10;;
3207;SDS011;1616;52.394;9.756;2022-07-23T07:46:06;2.13;;;1.67;;
3207;SDS011;1616;52.394;9.756;2022-07-23T07:48:38;3.33;;;2.10;;
3207;SDS011;1616;52.394;9.756;2022-07-23T07:51:04;1.60;;;1.50;;
3207;SDS011;1616;52.394;9.756;2022-07-23T07:53:30;1.40;;;1.30;;
3207;SDS011;1616;52.394;9.756;2022-07-23T07:55:56;1.30;;;1.20;;
3207;SDS011;1616;52.394;9.756;2022-07-23T07:58:21;1.43;;;1.07;;
3207;SDS011;1616;52.394;9.756;2022-07-23T08:00:47;1.97;;;1.33;;
3207;SDS011;1616;52.394;9.756;2022-07-23T08:03:13;1.70;;;1.30;;
3207;SDS011;1616;52.394;9.756;2022-07-23T08:05:39;2.90;;;1.53;;
3207;SDS011;1616;52.394;9.756;2022-07-23T08:08:04;1.30;;;1.20;;
3207;SDS011;1616;52.394;9.756;2022-07-23T08:10:30;1.63;;;1.20;;
3207;SDS011;1616;52.394;9.756;2022-07-23T08:12:59;2.77;;;1.73;;
3207;SDS011;1616;52.394;9.756;2022-07-23T08:15:26;2.50;;;1.33;;
3207;SDS011;1616;52.394;9.756;2022-07-23T08:17:53;3.87;;;1.20;;
3207;SDS011;1616;52.394;9.756;2022-07-23T08:20:21;2.30;;;1.10;;
3207;SDS011;1616;52.394;9.756;2022-07-23T08:22:49;1.90;;;1.43;;
3207;SDS011;1616;52.394;9.756;2022-07-23T08:25:15;1.83;;;1.57;;
3207;SDS011;1616;52.394;9.756;2022-07-23T08:27:45;1.27;;;1.00;;
3207;SDS011;1616;52.394;9.756;2022-07-23T08:30:12;1.43;;;1.00;;
3207;SDS011;1616;52.394;9.756;2022-07-23T08:32:47;1.70;;;1.07;;
3207;SDS011;1616;52.394;9.756;2022-07-23T08:35:39;2.40;;;1.30;;
3207;SDS011;1616;52.394;9.756;2022-07-23T08:38:07;2.70;;;1.23;;
3207;SDS011;1616;52.394;9.756;2022-07-23T08:40:35;1.80;;;1.23;;
3207;SDS011;1616;52.394;9.756;2022-07-23T08:43:06;4.40;;;1.27;;
3207;SDS011;1616;52.394;9.756;2022-07-23T08:45:38;1.70;;;1.40;;
3207;SDS011;1616;52.394;9.756;2022-07-23T08:48:06;2.00;;;1.00;;
3207;SDS011;1616;52.394;9.756;2022-07-23T08:50:34;1.30;;;0.90;;
3207;SDS011;1616;52.394;9.756;2022-07-23T08:53:01;2.70;;;0.90;;
3207;SDS011;1616;52.394;9.756;2022-07-23T08:55:30;1.10;;;0.90;;
3207;SDS011;1616;52.394;9.756;2022-07-23T08:57:55;1.40;;;1.00;;
3207;SDS011;1616;52.394;9.756;2022-07-23T09:00:21;1.80;;;1.03;;
3207;SDS011;1616;52.394;9.756;2022-07-23T09:02:48;1.47;;;1.20;;
3207;SDS011;1616;52.394;9.756;2022-07-23T09:05:16;1.10;;;1.00;;
3207;SDS011;1616;52.394;9.756;2022-07-23T09:10:47;2.40;;;1.10;;
3207;SDS011;1616;52.394;9.756;2022-07-23T09:16:09;1.57;;;1.00;;
3207;SDS011;1616;52.394;9.756;2022-07-23T09:21:16;1.30;;;1.03;;
3207;SDS011;1616;52.394;9.756;2022-07-23T09:24:09;1.37;;;1.07;;
3207;SDS011;1616;52.394;9.756;2022-07-23T09:26:41;1.63;;;0.80;;
3207;SDS011;1616;52.394;9.756;2022-07-23T09:29:11;2.40;;;0.90;;
3207;SDS011;1616;52.394;9.756;2022-07-23T09:36:49;2.53;;;0.90;;
3207;SDS011;1616;52.394;9.756;2022-07-23T09:39:23;1.33;;;0.90;;
3207;SDS011;1616;52.394;9.756;2022-07-23T09:41:57;1.40;;;1.00;;
3207;SDS011;1616;52.394;9.756;2022-07-23T09:44:40;1.17;;;1.00;;
3207;SDS011;1616;52.394;9.756;2022-07-23T09:47:07;1.50;;;1.20;;
3207;SDS011;1616;52.394;9.756;2022-07-23T09:49:33;1.20;;;1.10;;
3207;SDS011;1616;52.394;9.756;2022-07-23T09:51:59;1.40;;;0.97;;
3207;SDS011;1616;52.394;9.756;2022-07-23T09:54:35;2.20;;;1.07;;
3207;SDS011;1616;52.394;9.756;2022-07-23T09:57:10;1.13;;;0.90;;
3207;SDS011;1616;52.394;9.756;2022-07-23T09:59:40;2.33;;;1.00;;
3207;SDS011;1616;52.394;9.756;2022-07-23T10:02:08;2.07;;;1.20;;
3207;SDS011;1616;52.394;9.756;2022-07-23T10:04:34;2.90;;;1.00;;
3207;SDS011;1616;52.394;9.756;2022-07-23T10:07:01;1.57;;;0.90;;
3207;SDS011;1616;52.394;9.756;2022-07-23T10:09:30;1.25;;;1.00;;
3207;SDS011;1616;52.394;9.756;2022-07-23T10:12:01;1.30;;;1.07;;
3207;SDS011;1616;52.394;9.756;2022-07-23T10:14:47;2.47;;;1.10;;
3207;SDS011;1616;52.394;9.756;2022-07-23T10:17:13;1.33;;;0.93;;
3207;SDS011;1616;52.394;9.756;2022-07-23T10:19:39;1.00;;;0.70;;
3207;SDS011;1616;52.394;9.756;2022-07-23T10:22:15;1.97;;;0.90;;
3207;SDS011;1616;52.394;9.756;2022-07-23T10:33:14;1.20;;;1.00;;
3207;SDS011;1616;52.394;9.756;2022-07-23T10:35:56;1.00;;;0.90;;
3207;SDS011;1616;52.394;9.756;2022-07-23T10:39:32;1.20;;;1.00;;
3207;SDS011;1616;52.394;9.756;2022-07-23T10:41:33;1.23;;;0.90;;
3207;SDS011;1616;52.394;9.756;2022-07-23T10:44:20;2.03;;;0.93;;
3207;SDS011;1616;52.394;9.756;2022-07-23T10:46:54;1.00;;;0.73;;
3207;SDS011;1616;52.394;9.756;2022-07-23T10:49:29;1.10;;;0.70;;
3207;SDS011;1616;52.394;9.756;2022-07-23T10:54:39;1.27;;;1.10;;
3207;SDS011;1616;52.394;9.756;2022-07-23T10:57:06;1.50;;;0.90;;
3207;SDS011;1616;52.394;9.756;2022-07-23T11:02:37;2.60;;;0.80;;
3207;SDS011;1616;52.394;9.756;2022-07-23T11:05:05;3.03;;;0.80;;
3207;SDS011;1616;52.394;9.756;2022-07-23T11:07:34;1.20;;;0.90;;
3207;SDS011;1616;52.394;9.756;2022-07-23T11:10:00;1.20;;;0.90;;
3207;SDS011;1616;52.394;9.756;2022-07-23T11:17:34;1.10;;;0.80;;
3207;SDS011;1616;52.394;9.756;2022-07-23T11:22:37;1.00;;;0.90;;
3207;SDS011;1616;52.394;9.756;2022-07-23T11:25:09;1.40;;;0.90;;
3207;SDS011;1616;52.394;9.756;2022-07-23T11:27:40;1.10;;;0.80;;
3207;SDS011;1616;52.394;9.756;2022-07-23T11:30:07;0.90;;;0.70;;
3207;SDS011;1616;52.394;9.756;2022-07-23T11:32:36;1.00;;;0.80;;
3207;SDS011;1616;52.394;9.756;2022-07-23T11:35:18;3.07;;;0.80;;
3207;SDS011;1616;52.394;9.756;2022-07-23T11:37:45;0.90;;;0.77;;
3207;SDS011;1616;52.394;9.756;2022-07-23T11:40:14;2.97;;;0.80;;
3207;SDS011;1616;52.394;9.756;2022-07-23T11:42:58;1.47;;;0.70;;
3207;SDS011;1616;52.394;9.756;2022-07-23T11:45:36;1.10;;;0.80;;
3207;SDS011;1616;52.394;9.756;2022-07-23T11:48:08;2.03;;;0.98;;
3207;SDS011;1616;52.394;9.756;2022-07-23T11:50:41;1.35;;;0.80;;
3207;SDS011;1616;52.394;9.756;2022-07-23T11:53:07;0.80;;;0.60;;
3207;SDS011;1616;52.394;9.756;2022-07-23T11:55:33;0.90;;;0.60;;
3207;SDS011;1616;52.394;9.756;2022-07-23T11:57:59;2.72;;;0.70;;
3207;SDS011;1616;52.394;9.756;2022-07-23T12:00:27;4.15;;;0.60;;
3207;SDS011;1616;52.394;9.756;2022-07-23T12:02:58;0.80;;;0.60;;
3207;SDS011;1616;52.394;9.756;2022-07-23T12:05:27;1.00;;;0.60;;
3207;SDS011;1616;52.394;9.756;2022-07-23T12:07:55;0.80;;;0.50;;
3207;SDS011;1616;52.394;9.756;2022-07-23T12:12:50;1.00;;;0.70;;
3207;SDS011;1616;52.394;9.756;2022-07-23T12:15:18;0.93;;;0.70;;
3207;SDS011;1616;52.394;9.756;2022-07-23T12:17:47;1.00;;;0.70;;
3207;SDS011;1616;52.394;9.756;2022-07-23T12:20:15;1.08;;;0.60;;
3207;SDS011;1616;52.394;9.756;2022-07-23T12:22:44;1.60;;;0.80;;
3207;SDS011;1616;52.394;9.756;2022-07-23T12:25:19;1.20;;;0.70;;
3207;SDS011;1616;52.394;9.756;2022-07-23T12:27:57;1.00;;;0.70;;
3207;SDS011;1616;52.394;9.756;2022-07-23T12:30:31;1.63;;;0.70;;
3207;SDS011;1616;52.394;9.756;2022-07-23T12:33:04;2.17;;;0.57;;
3207;SDS011;1616;52.394;9.756;2022-07-23T12:35:32;0.80;;;0.60;;
3207;SDS011;1616;52.394;9.756;2022-07-23T12:38:06;2.20;;;0.70;;
3207;SDS011;1616;52.394;9.756;2022-07-23T12:40:35;1.67;;;0.63;;
3207;SDS011;1616;52.394;9.756;2022-07-23T12:43:07;1.10;;;0.63;;
3207;SDS011;1616;52.394;9.756;2022-07-23T12:45:42;4.13;;;0.73;;
3207;SDS011;1616;52.394;9.756;2022-07-23T12:48:18;1.57;;;0.53;;
3207;SDS011;1616;52.394;9.756;2022-07-23T12:50:52;2.50;;;0.80;;
3207;SDS011;1616;52.394;9.756;2022-07-23T12:53:29;1.10;;;0.50;;
3207;SDS011;1616;52.394;9.756;2022-07-23T12:56:07;0.90;;;0.60;;
3207;SDS011;1616;52.394;9.756;2022-07-23T13:01:27;0.90;;;0.52;;
3207;SDS011;1616;52.394;9.756;2022-07-23T13:04:09;1.87;;;0.70;;
3207;SDS011;1616;52.394;9.756;2022-07-23T13:09:09;1.30;;;0.60;;
3207;SDS011;1616;52.394;9.756;2022-07-23T13:11:37;0.80;;;0.60;;
3207;SDS011;1616;52.394;9.756;2022-07-23T13:14:04;0.90;;;0.67;;
3207;SDS011;1616;52.394;9.756;2022-07-23T13:16:30;1.60;;;0.60;;
3207;SDS011;1616;52.394;9.756;2022-07-23T13:18:57;1.00;;;0.60;;
3207;SDS011;1616;52.394;9.756;2022-07-23T13:21:23;1.00;;;0.67;;
3207;SDS011;1616;52.394;9.756;2022-07-23T13:23:49;1.37;;;0.60;;
3207;SDS011;1616;52.394;9.756;2022-07-23T13:26:15;0.83;;;0.57;;
3207;SDS011;1616;52.394;9.756;2022-07-23T13:28:41;1.07;;;0.60;;
3207;SDS011;1616;52.394;9.756;2022-07-23T13:31:07;2.33;;;0.50;;
3207;SDS011;1616;52.394;9.756;2022-07-23T13:33:33;1.00;;;0.60;;
3207;SDS011;1616;52.394;9.756;2022-07-23T13:35:59;5.67;;;0.97;;
3207;SDS011;1616;52.394;9.756;2022-07-23T13:38:25;0.90;;;0.60;;
3207;SDS011;1616;52.394;9.756;2022-07-23T13:40:51;0.90;;;0.60;;
3207;SDS011;1616;52.394;9.756;2022-07-23T13:43:19;0.80;;;0.50;;
3207;SDS011;1616;52.394;9.756;2022-07-23T13:45:46;7.23;;;0.60;;
3207;SDS011;1616;52.394;9.756;2022-07-23T13:48:13;2.93;;;0.70;;
3207;SDS011;1616;52.394;9.756;2022-07-23T13:50:40;0.87;;;0.60;;
3207;SDS011;1616;52.394;9.756;2022-07-23T13:53:08;1.23;;;0.60;;
3207;SDS011;1616;52.394;9.756;2022-07-23T13:55:36;0.90;;;0.67;;
3207;SDS011;1616;52.394;9.756;2022-07-23T13:58:02;1.10;;;0.63;;
3207;SDS011;1616;52.394;9.756;2022-07-23T14:00:29;3.73;;;0.80;;
3207;SDS011;1616;52.394;9.756;2022-07-23T14:02:57;1.03;;;0.67;;
3207;SDS011;1616;52.394;9.756;2022-07-23T14:05:23;0.90;;;0.60;;
3207;SDS011;1616;52.394;9.756;2022-07-23T14:07:49;0.97;;;0.60;;
3207;SDS011;1616;52.394;9.756;2022-07-23T14:10:16;1.43;;;0.70;;
3207;SDS011;1616;52.394;9.756;2022-07-23T14:12:44;0.90;;;0.60;;
3207;SDS011;1616;52.394;9.756;2022-07-23T14:15:10;1.10;;;0.60;;
3207;SDS011;1616;52.394;9.756;2022-07-23T14:17:37;1.33;;;0.50;;
3207;SDS011;1616;52.394;9.756;2022-07-23T14:20:03;0.90;;;0.60;;
3207;SDS011;1616;52.394;9.756;2022-07-23T14:22:30;1.10;;;0.70;;
3207;SDS011;1616;52.394;9.756;2022-07-23T14:24:56;0.80;;;0.43;;
3207;SDS011;1616;52.394;9.756;2022-07-23T14:27:23;1.20;;;0.70;;
3207;SDS011;1616;52.394;9.756;2022-07-23T14:29:49;1.40;;;0.80;;
3207;SDS011;1616;52.394;9.756;2022-07-23T14:32:15;2.10;;;0.60;;
3207;SDS011;1616;52.394;9.756;2022-07-23T14:34:41;1.50;;;0.67;;
3207;SDS011;1616;52.394;9.756;2022-07-23T14:37:07;1.00;;;0.67;;
3207;SDS011;1616;52.394;9.756;2022-07-23T14:39:35;0.90;;;0.60;;
3207;SDS011;1616;52.394;9.756;2022-07-23T14:42:01;1.50;;;0.60;;
3207;SDS011;1616;52.394;9.756;2022-07-23T14:44:27;1.00;;;0.60;;
3207;SDS011;1616;52.394;9.756;2022-07-23T14:46:52;0.90;;;0.60;;
3207;SDS011;1616;52.394;9.756;2022-07-23T14:49:18;0.87;;;0.50;;
3207;SDS011;1616;52.394;9.756;2022-07-23T14:51:44;0.80;;;0.50;;
3207;SDS011;1616;52.394;9.756;2022-07-23T14:54:10;1.07;;;0.50;;
3207;SDS011;1616;52.394;9.756;2022-07-23T14:56:36;1.13;;;0.53;;
3207;SDS011;1616;52.394;9.756;2022-07-23T14:59:04;1.00;;;0.60;;
3207;SDS011;1616;52.394;9.756;2022-07-23T15:01:29;1.10;;;0.60;;
3207;SDS011;1616;52.394;9.756;2022-07-23T15:03:55;4.70;;;0.70;;
3207;SDS011;1616;52.394;9.756;2022-07-23T15:06:21;0.90;;;0.57;;
3207;SDS011;1616;52.394;9.756;2022-07-23T15:08:47;1.40;;;0.53;;
3207;SDS011;1616;52.394;9.756;2022-07-23T15:11:13;1.00;;;0.60;;
3207;SDS011;1616;52.394;9.756;2022-07-23T15:13:39;0.90;;;0.50;;
3207;SDS011;1616;52.394;9.756;2022-07-23T15:16:05;1.23;;;0.50;;
3207;SDS011;1616;52.394;9.756;2022-07-23T15:18:31;1.00;;;0.57;;
3207;SDS011;1616;52.394;9.756;2022-07-23T15:20:57;0.90;;;0.60;;
3207;SDS011;1616;52.394;9.756;2022-07-23T15:23:23;1.03;;;0.60;;
3207;SDS011;1616;52.394;9.756;2022-07-23T15:25:49;0.80;;;0.50;;
3207;SDS011;1616;52.394;9.756;2022-07-23T15:28:14;0.90;;;0.50;;
3207;SDS011;1616;52.394;9.756;2022-07-23T15:30:41;1.33;;;0.70;;
3207;SDS011;1616;52.394;9.756;2022-07-23T15:33:07;1.87;;;0.50;;
3207;SDS011;1616;52.394;9.756;2022-07-23T15:35:32;0.90;;;0.60;;
3207;SDS011;1616;52.394;9.756;2022-07-23T15:37:58;1.20;;;0.60;;
3207;SDS011;1616;52.394;9.756;2022-07-23T15:40:24;0.87;;;0.60;;
3207;SDS011;1616;52.394;9.756;2022-07-23T15:42:50;1.00;;;0.50;;
3207;SDS011;1616;52.394;9.756;2022-07-23T15:45:16;1.00;;;0.70;;
3207;SDS011;1616;52.394;9.756;2022-07-23T15:47:42;1.20;;;0.70;;
3207;SDS011;1616;52.394;9.756;2022-07-23T15:50:08;1.03;;;0.70;;
3207;SDS011;1616;52.394;9.756;2022-07-23T15:52:34;1.10;;;0.60;;
3207;SDS011;1616;52.394;9.756;2022-07-23T15:55:01;4.30;;;0.60;;
3207;SDS011;1616;52.394;9.756;2022-07-23T15:57:27;1.07;;;0.57;;
3207;SDS011;1616;52.394;9.756;2022-07-23T15:59:54;2.07;;;0.60;;